Satellite Beach, Florida
Current Conditions -  °F | °C
As of 8:58 AM on Friday 31 Oct 2014 (Local Time) from KCOF Reporting Station
Few Clouds Few Clouds  
Wind Chill: 71°   Ceiling: Unl
Heat Index: 71°   Visibility: 10mi
Dew Point: 67°   Wind: 8mph
Humidity: 90%   Direction: 300°WNW
Pressure: 29.85"   Gusts: NA
Location:  28.17°N, 80.6°W
Report Text: KCOF 311258Z AUTO 30007KT 10SM FEW080 21/20 A2985 RMK AO2 SLP112 T02140197
Loading
Personal Weather Stations






























Interactive Weather Map
Tropical Storm Tracking
New forecast layout! Learn more

10-Day Weather Forecast

Advertisements
Track Severe Weather on mobile